createdAt,value
2023-03-30T00:00:11.813Z,25.40
2023-03-30T00:01:11.898Z,25.39
2023-03-30T00:02:11.852Z,25.39
2023-03-30T00:03:11.989Z,25.39
2023-03-30T00:04:12.150Z,25.40
2023-03-30T00:05:12.132Z,25.40
2023-03-30T00:06:11.953Z,25.39
2023-03-30T00:07:12.000Z,25.40
2023-03-30T00:08:12.025Z,25.40
2023-03-30T00:09:12.070Z,25.39
2023-03-30T00:10:12.115Z,25.39
2023-03-30T00:11:12.095Z,25.39
2023-03-30T00:12:12.124Z,25.40
2023-03-30T00:13:12.158Z,25.40
2023-03-30T00:14:12.208Z,25.39
2023-03-30T00:15:12.253Z,25.39
2023-03-30T00:16:12.257Z,25.40
2023-03-30T00:17:12.252Z,25.39
2023-03-30T00:18:12.321Z,25.39
2023-03-30T00:19:12.342Z,25.39
2023-03-30T00:20:12.460Z,25.39
2023-03-30T00:21:12.364Z,25.40
2023-03-30T00:22:12.392Z,25.40
2023-03-30T00:23:12.409Z,25.39
2023-03-30T00:24:12.430Z,25.40
2023-03-30T00:25:12.494Z,25.39
2023-03-30T00:26:12.481Z,25.39
2023-03-30T00:27:12.616Z,25.40
2023-03-30T00:28:12.749Z,25.40
2023-03-30T00:29:12.953Z,25.39
2023-03-30T00:30:13.212Z,25.38
2023-03-30T00:31:13.430Z,25.40
2023-03-30T00:32:13.602Z,25.39
2023-03-30T00:33:13.676Z,25.39
2023-03-30T00:34:13.844Z,25.40
2023-03-30T00:35:14.014Z,25.39
2023-03-30T00:36:14.239Z,25.39
2023-03-30T00:37:14.428Z,25.40
2023-03-30T00:38:14.652Z,25.39
2023-03-30T00:39:14.730Z,25.39
2023-03-30T00:40:15.015Z,25.39
2023-03-30T00:41:15.208Z,25.39
2023-03-30T00:42:15.404Z,25.39
2023-03-30T00:43:15.666Z,25.39
2023-03-30T00:44:15.820Z,25.39
2023-03-30T00:45:16.032Z,25.40
2023-03-30T00:46:16.248Z,25.39
2023-03-30T00:47:16.357Z,25.40
2023-03-30T00:48:16.549Z,25.40
2023-03-30T00:49:16.748Z,25.39
2023-03-30T00:50:16.919Z,25.40
2023-03-30T00:51:17.122Z,25.38
2023-03-30T00:52:17.244Z,25.39
2023-03-30T00:53:17.380Z,25.39
2023-03-30T00:54:17.527Z,25.39
2023-03-30T00:55:17.685Z,25.40
2023-03-30T00:56:17.853Z,25.39
2023-03-30T00:57:18.044Z,25.39
2023-03-30T00:58:18.186Z,25.40
2023-03-30T00:59:18.323Z,25.39
2023-03-30T01:00:18.474Z,25.39
2023-03-30T01:01:18.732Z,25.39
2023-03-30T01:02:18.683Z,25.39
2023-03-30T01:03:18.739Z,25.39
2023-03-30T01:04:18.658Z,25.39
2023-03-30T01:05:18.649Z,25.40
2023-03-30T01:06:18.643Z,25.40
2023-03-30T01:07:18.628Z,25.40
2023-03-30T01:08:18.623Z,25.39
2023-03-30T01:09:18.603Z,25.40
2023-03-30T01:10:18.616Z,25.40
2023-03-30T01:11:18.608Z,25.39
2023-03-30T01:12:18.598Z,25.40
2023-03-30T01:13:18.573Z,25.40
2023-03-30T01:14:18.576Z,25.40
2023-03-30T01:15:18.574Z,25.40
2023-03-30T01:16:18.582Z,25.40
2023-03-30T01:17:18.548Z,25.40
2023-03-30T01:18:18.589Z,25.40
2023-03-30T01:19:18.552Z,25.39
2023-03-30T01:20:18.534Z,25.39
2023-03-30T01:21:18.536Z,25.40
2023-03-30T01:22:18.517Z,25.39
2023-03-30T01:23:18.501Z,25.40
2023-03-30T01:24:18.515Z,25.39
2023-03-30T01:25:18.494Z,25.39
2023-03-30T01:26:18.511Z,25.39
2023-03-30T01:27:18.488Z,25.39
2023-03-30T01:28:18.463Z,25.38
2023-03-30T01:29:18.489Z,25.39
2023-03-30T01:30:18.463Z,25.40
2023-03-30T01:31:18.551Z,25.40
2023-03-30T01:32:18.461Z,25.40
2023-03-30T01:33:18.450Z,25.39
2023-03-30T01:34:18.439Z,25.40
2023-03-30T01:35:18.482Z,25.40
2023-03-30T01:36:18.481Z,25.39
2023-03-30T01:37:18.412Z,25.39
2023-03-30T01:38:18.414Z,25.40
2023-03-30T01:39:18.403Z,25.39
2023-03-30T01:40:18.383Z,25.39
2023-03-30T01:41:18.382Z,25.39
2023-03-30T01:42:18.378Z,25.38
2023-03-30T01:43:18.369Z,25.39
2023-03-30T01:44:18.350Z,25.39
2023-03-30T01:45:18.358Z,25.39
2023-03-30T01:46:18.433Z,25.40
2023-03-30T01:47:18.366Z,25.39
2023-03-30T01:48:18.338Z,25.40
2023-03-30T01:49:18.328Z,25.39
2023-03-30T01:50:18.324Z,25.39
2023-03-30T01:51:18.309Z,25.39
2023-03-30T01:52:18.324Z,25.39
2023-03-30T01:53:18.294Z,25.39
2023-03-30T01:54:18.299Z,25.38
2023-03-30T01:55:18.295Z,25.38
2023-03-30T01:56:18.292Z,25.39
2023-03-30T01:57:18.332Z,25.39
2023-03-30T01:58:18.256Z,25.39
2023-03-30T01:59:18.246Z,25.38
2023-03-30T02:00:18.241Z,25.38
2023-03-30T02:01:18.296Z,25.39
2023-03-30T02:02:18.293Z,25.38
2023-03-30T02:03:18.345Z,25.38
2023-03-30T02:04:18.225Z,25.38
2023-03-30T02:05:18.215Z,25.38
2023-03-30T02:06:18.210Z,25.38
2023-03-30T02:07:18.212Z,25.38
2023-03-30T02:08:18.185Z,25.38
2023-03-30T02:09:18.185Z,25.38
2023-03-30T02:10:18.167Z,25.38
2023-03-30T02:11:18.173Z,25.38
2023-03-30T02:12:18.150Z,25.38
2023-03-30T02:13:18.234Z,25.39
2023-03-30T02:14:18.135Z,25.38
2023-03-30T02:15:18.133Z,25.38
2023-03-30T02:16:18.205Z,25.38
2023-03-30T02:17:18.127Z,25.38
2023-03-30T02:18:18.149Z,25.39
2023-03-30T02:19:18.111Z,25.38
2023-03-30T02:20:18.121Z,25.38
2023-03-30T02:21:18.148Z,25.38
2023-03-30T02:22:18.171Z,25.39
2023-03-30T02:23:18.197Z,25.38
2023-03-30T02:24:18.202Z,25.38
2023-03-30T02:25:18.226Z,25.38
2023-03-30T02:26:18.254Z,25.38
2023-03-30T02:27:18.302Z,25.38
2023-03-30T02:28:18.379Z,25.38
2023-03-30T02:29:18.433Z,25.38
2023-03-30T02:30:18.465Z,25.38
2023-03-30T02:31:18.527Z,25.38
2023-03-30T02:32:18.521Z,25.38
2023-03-30T02:33:18.567Z,25.38
2023-03-30T02:34:18.616Z,25.38
2023-03-30T02:35:18.671Z,25.37
2023-03-30T02:36:18.786Z,25.38
2023-03-30T02:37:18.742Z,25.38
2023-03-30T02:38:18.759Z,25.37
2023-03-30T02:39:18.805Z,25.37
2023-03-30T02:40:18.963Z,25.37
2023-03-30T02:41:18.893Z,25.38
2023-03-30T02:42:18.946Z,25.37
2023-03-30T02:43:18.930Z,25.38
2023-03-30T02:44:18.966Z,25.37
2023-03-30T02:45:19.016Z,25.37
2023-03-30T02:46:19.088Z,25.37
2023-03-30T02:47:19.066Z,25.38
2023-03-30T02:48:19.104Z,25.38
2023-03-30T02:49:19.111Z,25.38
2023-03-30T02:50:19.147Z,25.37
2023-03-30T02:51:19.202Z,25.37
2023-03-30T02:52:19.230Z,25.37
2023-03-30T02:53:19.261Z,25.38
2023-03-30T02:54:19.300Z,25.38
2023-03-30T02:55:19.334Z,25.37
2023-03-30T02:56:19.335Z,25.38
2023-03-30T02:57:19.428Z,25.37
2023-03-30T02:58:19.405Z,25.37
2023-03-30T02:59:19.426Z,25.37
2023-03-30T03:00:19.475Z,25.37
2023-03-30T03:01:19.512Z,25.37
2023-03-30T03:02:19.487Z,25.37
2023-03-30T03:03:19.672Z,25.37
2023-03-30T03:04:19.548Z,25.37
2023-03-30T03:05:19.584Z,25.38
2023-03-30T03:06:19.617Z,25.37
2023-03-30T03:07:19.628Z,25.37
2023-03-30T03:08:19.700Z,25.37
2023-03-30T03:09:19.869Z,25.37
2023-03-30T03:10:20.009Z,25.37
2023-03-30T03:11:20.187Z,25.37
2023-03-30T03:12:20.383Z,25.38
2023-03-30T03:13:20.528Z,25.37
2023-03-30T03:14:20.731Z,25.37
2023-03-30T03:15:20.841Z,25.37
2023-03-30T03:16:21.138Z,25.37
2023-03-30T03:17:21.171Z,25.37
2023-03-30T03:18:21.373Z,25.37
2023-03-30T03:19:21.586Z,25.37
2023-03-30T03:20:21.757Z,25.37
2023-03-30T03:21:21.876Z,25.37
2023-03-30T03:22:22.050Z,25.37
2023-03-30T03:23:22.268Z,25.37
2023-03-30T03:24:22.489Z,25.36
2023-03-30T03:25:22.705Z,25.36
2023-03-30T03:26:22.800Z,25.37
2023-03-30T03:27:22.998Z,25.37
2023-03-30T03:28:23.149Z,25.37
2023-03-30T03:29:23.395Z,25.37
2023-03-30T03:30:23.543Z,25.37
2023-03-30T03:31:23.821Z,25.37
2023-03-30T03:32:23.981Z,25.37
2023-03-30T03:33:24.114Z,25.37
2023-03-30T03:34:24.321Z,25.37
2023-03-30T03:35:24.533Z,25.36
2023-03-30T03:36:24.666Z,25.37
2023-03-30T03:37:24.771Z,25.37
2023-03-30T03:38:24.759Z,25.36
2023-03-30T03:39:24.767Z,25.36
2023-03-30T03:40:24.753Z,25.37
2023-03-30T03:41:24.736Z,25.37
2023-03-30T03:42:24.728Z,25.37
2023-03-30T03:43:24.741Z,25.37
2023-03-30T03:44:24.713Z,25.37
2023-03-30T03:45:24.725Z,25.37
2023-03-30T03:46:24.741Z,25.36
2023-03-30T03:47:24.740Z,25.37
2023-03-30T03:48:24.762Z,25.36
2023-03-30T03:49:24.844Z,25.36
2023-03-30T03:50:24.832Z,25.37
2023-03-30T03:51:24.843Z,25.36
2023-03-30T03:52:24.806Z,25.37
2023-03-30T03:53:24.792Z,25.36
2023-03-30T03:54:24.781Z,25.37
2023-03-30T03:55:24.795Z,25.37
2023-03-30T03:56:24.768Z,25.37
2023-03-30T03:57:24.785Z,25.36
2023-03-30T03:58:24.754Z,25.37
2023-03-30T03:59:24.744Z,25.36
2023-03-30T04:00:24.770Z,25.37
2023-03-30T04:01:24.737Z,25.36
2023-03-30T04:02:24.857Z,25.37
2023-03-30T04:03:24.734Z,25.36
2023-03-30T04:04:24.737Z,25.36
2023-03-30T04:05:24.710Z,25.36
2023-03-30T04:06:24.718Z,25.37
2023-03-30T04:07:24.688Z,25.36
2023-03-30T04:08:24.694Z,25.37
2023-03-30T04:09:24.686Z,25.37
2023-03-30T04:10:24.666Z,25.36
2023-03-30T04:11:24.655Z,25.37
2023-03-30T04:12:24.662Z,25.37
2023-03-30T04:13:24.690Z,25.37
2023-03-30T04:14:24.638Z,25.36
2023-03-30T04:15:24.643Z,25.37
2023-03-30T04:16:24.682Z,25.37
2023-03-30T04:17:24.662Z,25.37
2023-03-30T04:18:24.615Z,25.36
2023-03-30T04:19:24.620Z,25.36
2023-03-30T04:20:24.590Z,25.36
2023-03-30T04:21:24.591Z,25.36
2023-03-30T04:22:24.600Z,25.36
2023-03-30T04:23:24.671Z,25.36
2023-03-30T04:24:24.589Z,25.36
2023-03-30T04:25:24.580Z,25.36
2023-03-30T04:26:24.597Z,25.35
2023-03-30T04:27:24.575Z,25.36
2023-03-30T04:28:24.559Z,25.36
2023-03-30T04:29:24.585Z,25.36
2023-03-30T04:30:24.608Z,25.36
2023-03-30T04:31:24.685Z,25.36
2023-03-30T04:32:24.689Z,25.36
2023-03-30T04:33:24.754Z,25.35
2023-03-30T04:34:24.717Z,25.36
2023-03-30T04:35:24.728Z,25.36
2023-03-30T04:36:24.790Z,25.36
2023-03-30T04:37:24.789Z,25.36
2023-03-30T04:38:24.817Z,25.36
2023-03-30T04:39:24.830Z,25.36
2023-03-30T04:40:24.866Z,25.36
2023-03-30T04:41:24.893Z,25.36
2023-03-30T04:42:24.918Z,25.36
2023-03-30T04:43:24.972Z,25.35
2023-03-30T04:44:24.999Z,25.36
2023-03-30T04:45:25.024Z,25.35
2023-03-30T04:46:25.055Z,25.35
2023-03-30T04:47:25.104Z,25.35
2023-03-30T04:48:25.074Z,25.36
2023-03-30T04:49:25.104Z,25.35
2023-03-30T04:50:25.146Z,25.35
2023-03-30T04:51:25.101Z,25.36
2023-03-30T04:52:25.117Z,25.35
2023-03-30T04:53:25.136Z,25.35
2023-03-30T04:54:25.144Z,25.36
2023-03-30T04:55:25.177Z,25.36
2023-03-30T04:56:25.225Z,25.36
2023-03-30T04:57:25.312Z,25.36
2023-03-30T04:58:25.230Z,25.36
2023-03-30T04:59:25.248Z,25.35
2023-03-30T05:00:25.263Z,25.36
2023-03-30T05:01:25.337Z,25.36
2023-03-30T05:02:25.417Z,25.36
2023-03-30T05:03:25.461Z,25.36
2023-03-30T05:04:25.341Z,25.36
2023-03-30T05:05:25.357Z,25.36
2023-03-30T05:06:25.402Z,25.36
2023-03-30T05:07:25.422Z,25.37
2023-03-30T05:08:25.493Z,25.37
2023-03-30T05:09:25.476Z,25.37
2023-03-30T05:10:25.505Z,25.36
2023-03-30T05:11:25.526Z,25.37
2023-03-30T05:12:25.576Z,25.36
2023-03-30T05:13:25.624Z,25.37
2023-03-30T05:14:25.626Z,25.37
2023-03-30T05:15:25.622Z,25.37
2023-03-30T05:16:25.678Z,25.37
2023-03-30T05:17:25.747Z,25.37
2023-03-30T05:18:25.701Z,25.37
2023-03-30T05:19:25.771Z,25.37
2023-03-30T05:20:25.776Z,25.37
2023-03-30T05:21:25.793Z,25.36
2023-03-30T05:22:25.811Z,25.38
2023-03-30T05:23:25.827Z,25.38
2023-03-30T05:24:25.874Z,25.38
2023-03-30T05:25:25.868Z,25.37
2023-03-30T05:26:25.903Z,25.38
2023-03-30T05:27:25.910Z,25.33
2023-03-30T05:28:25.922Z,25.34
2023-03-30T05:29:25.947Z,25.30
2023-03-30T05:30:25.965Z,25.33
2023-03-30T05:31:26.012Z,25.33
2023-03-30T05:32:26.042Z,25.35
2023-03-30T05:33:26.032Z,25.37
2023-03-30T05:34:26.081Z,25.40
2023-03-30T05:35:26.227Z,25.44
2023-03-30T05:36:26.362Z,25.48
2023-03-30T05:37:26.530Z,25.50
2023-03-30T05:38:26.711Z,25.52
2023-03-30T05:39:26.893Z,25.56
2023-03-30T05:40:27.147Z,25.63
2023-03-30T05:41:27.321Z,25.67
2023-03-30T05:42:27.539Z,25.72
2023-03-30T05:43:27.760Z,25.76
2023-03-30T05:44:28.086Z,25.80
2023-03-30T05:45:28.165Z,25.85
2023-03-30T05:46:28.413Z,25.87
2023-03-30T05:47:28.613Z,25.91
2023-03-30T05:48:28.779Z,25.93
2023-03-30T05:49:28.971Z,25.96
2023-03-30T05:50:29.170Z,25.98
2023-03-30T05:51:29.362Z,26.01
2023-03-30T05:52:29.556Z,26.03
2023-03-30T05:53:29.740Z,26.05
2023-03-30T05:54:29.938Z,26.07
2023-03-30T05:55:30.117Z,26.09
2023-03-30T05:56:30.362Z,26.11
2023-03-30T05:57:30.544Z,26.13
2023-03-30T05:58:30.674Z,26.14
2023-03-30T05:59:31.098Z,26.15
2023-03-30T06:00:31.074Z,26.17
2023-03-30T06:01:31.244Z,26.19
2023-03-30T06:02:31.419Z,26.16
2023-03-30T06:03:31.745Z,26.18
2023-03-30T06:04:31.829Z,26.20
2023-03-30T06:05:32.109Z,26.22
2023-03-30T06:06:32.089Z,26.24
2023-03-30T06:07:32.303Z,26.25
2023-03-30T06:08:32.421Z,26.26
2023-03-30T06:09:32.616Z,26.29
2023-03-30T06:10:32.784Z,26.30
2023-03-30T06:11:32.921Z,26.32
2023-03-30T06:12:33.125Z,26.33
2023-03-30T06:13:33.365Z,26.33
2023-03-30T06:14:33.558Z,26.32
2023-03-30T06:15:33.768Z,26.32
2023-03-30T06:16:34.036Z,26.30
2023-03-30T06:17:34.178Z,26.31
2023-03-30T06:18:34.374Z,26.30
2023-03-30T06:19:34.625Z,26.29
2023-03-30T06:20:35.081Z,26.23
2023-03-30T06:21:34.828Z,26.22
2023-03-30T06:22:34.833Z,26.22
2023-03-30T06:23:34.853Z,26.22
2023-03-30T06:24:34.877Z,26.21
2023-03-30T06:25:34.856Z,26.20
2023-03-30T06:26:34.873Z,26.21
2023-03-30T06:27:34.865Z,26.20
2023-03-30T06:28:34.895Z,26.19
2023-03-30T06:29:34.858Z,26.19
2023-03-30T06:30:34.856Z,26.18
2023-03-30T06:31:34.864Z,26.15
2023-03-30T06:32:35.106Z,26.09
2023-03-30T06:33:34.897Z,26.05
2023-03-30T06:34:34.871Z,26.05
2023-03-30T06:35:34.978Z,26.09
2023-03-30T06:36:44.179Z,26.12
2023-03-30T06:37:35.887Z,26.12
2023-03-30T06:38:34.890Z,26.14
2023-03-30T06:39:34.867Z,26.15
2023-03-30T06:40:35.119Z,26.15
2023-03-30T06:41:34.844Z,26.16
2023-03-30T06:42:34.854Z,26.18
2023-03-30T06:43:34.864Z,26.18
2023-03-30T06:44:34.860Z,26.19
2023-03-30T06:45:34.878Z,26.19
2023-03-30T06:46:34.822Z,26.20
2023-03-30T06:47:35.190Z,26.20
2023-03-30T06:48:34.830Z,26.20
2023-03-30T06:49:34.818Z,26.20
2023-03-30T06:50:35.097Z,26.20
2023-03-30T06:51:34.802Z,26.19
2023-03-30T06:52:34.792Z,26.20
2023-03-30T06:53:34.788Z,26.20
2023-03-30T06:54:34.756Z,26.19
2023-03-30T06:55:34.762Z,26.20
2023-03-30T06:56:34.801Z,26.20
2023-03-30T06:57:34.784Z,26.21
2023-03-30T06:58:34.749Z,26.21
2023-03-30T06:59:34.956Z,26.21
2023-03-30T07:00:34.728Z,26.21
2023-03-30T07:01:34.836Z,26.20
2023-03-30T07:02:34.741Z,26.18
2023-03-30T07:03:35.615Z,26.17
2023-03-30T07:04:34.783Z,26.16
2023-03-30T07:05:34.729Z,26.13
2023-03-30T07:06:34.763Z,26.11
2023-03-30T07:07:34.787Z,26.06
2023-03-30T07:08:34.797Z,26.04
2023-03-30T07:09:34.806Z,25.99
2023-03-30T07:10:34.875Z,25.97
2023-03-30T07:11:35.116Z,25.94
2023-03-30T07:12:34.944Z,25.92
2023-03-30T07:13:35.121Z,25.90
2023-03-30T07:14:35.030Z,25.88
2023-03-30T07:15:35.125Z,25.87
2023-03-30T07:16:35.399Z,25.85
2023-03-30T07:17:35.475Z,25.84
2023-03-30T07:18:35.589Z,25.81
2023-03-30T07:19:35.748Z,25.78
2023-03-30T07:20:35.922Z,25.74
2023-03-30T07:21:36.102Z,25.71
2023-03-30T07:22:36.250Z,25.67
2023-03-30T07:23:36.412Z,25.65
2023-03-30T07:24:36.578Z,25.63
2023-03-30T07:25:36.745Z,25.63
2023-03-30T07:26:37.117Z,25.55
2023-03-30T07:27:37.196Z,25.50
2023-03-30T07:28:37.387Z,25.49
2023-03-30T07:29:37.609Z,25.51
2023-03-30T07:30:37.820Z,25.55
2023-03-30T07:31:38.170Z,25.62
2023-03-30T07:32:38.294Z,25.68
2023-03-30T07:33:38.689Z,25.74
2023-03-30T07:34:38.547Z,25.79
2023-03-30T07:35:38.699Z,25.84
2023-03-30T07:36:38.947Z,25.87
2023-03-30T07:37:39.154Z,25.90
2023-03-30T07:38:39.370Z,25.91
2023-03-30T07:39:39.561Z,25.94
2023-03-30T07:40:39.764Z,25.96
2023-03-30T07:41:39.940Z,25.98
2023-03-30T07:42:40.138Z,25.98
2023-03-30T07:43:40.430Z,25.99
2023-03-30T07:44:40.572Z,25.99
2023-03-30T07:45:40.781Z,25.98
2023-03-30T07:46:40.958Z,25.97
2023-03-30T07:47:41.132Z,25.98
2023-03-30T07:48:41.298Z,25.99
2023-03-30T07:49:41.520Z,26.00
2023-03-30T07:50:41.674Z,26.02
2023-03-30T07:51:41.879Z,26.04
2023-03-30T07:52:42.073Z,26.05
2023-03-30T07:53:42.289Z,26.09
2023-03-30T07:54:42.438Z,26.10
2023-03-30T07:55:42.637Z,26.11
2023-03-30T07:56:42.981Z,26.14
2023-03-30T07:57:43.014Z,26.16
2023-03-30T07:58:43.175Z,26.18
2023-03-30T07:59:43.369Z,26.20
2023-03-30T08:00:43.520Z,26.18
2023-03-30T08:01:43.743Z,26.16
2023-03-30T08:02:44.180Z,26.16
2023-03-30T08:03:44.034Z,26.17
2023-03-30T08:04:44.204Z,26.17
2023-03-30T08:05:44.366Z,26.18
2023-03-30T08:06:44.538Z,26.20
2023-03-30T08:07:44.700Z,26.22
2023-03-30T08:08:44.908Z,26.24
2023-03-30T08:09:45.045Z,26.26
2023-03-30T08:10:45.202Z,26.27
2023-03-30T08:11:45.368Z,26.30
2023-03-30T08:12:45.529Z,26.31
2023-03-30T08:13:45.661Z,26.32
2023-03-30T08:14:45.836Z,26.34
2023-03-30T08:15:46.070Z,26.35
2023-03-30T08:16:46.141Z,26.37
2023-03-30T08:17:46.325Z,26.38
2023-03-30T08:18:46.477Z,26.39
2023-03-30T08:19:46.691Z,26.40
2023-03-30T08:20:47.135Z,26.43
2023-03-30T08:21:46.979Z,26.43
2023-03-30T08:22:47.199Z,26.44
2023-03-30T08:23:47.377Z,26.46
2023-03-30T08:24:47.553Z,26.45
2023-03-30T08:25:48.136Z,26.43
2023-03-30T08:26:47.721Z,26.41
2023-03-30T08:27:47.737Z,26.37
2023-03-30T08:28:47.749Z,26.32
2023-03-30T08:29:47.731Z,26.29
2023-03-30T08:30:47.748Z,26.24
2023-03-30T08:31:47.796Z,26.19
2023-03-30T08:32:47.861Z,26.16
2023-03-30T08:33:47.824Z,26.14
2023-03-30T08:34:47.825Z,26.11
2023-03-30T08:35:47.915Z,26.09
2023-03-30T08:36:47.878Z,26.06
2023-03-30T08:37:47.934Z,25.96
2023-03-30T08:38:47.985Z,25.90
2023-03-30T08:39:48.039Z,25.90
2023-03-30T08:40:48.104Z,25.92
2023-03-30T08:41:48.120Z,25.97
2023-03-30T08:42:48.191Z,25.99
2023-03-30T08:43:48.217Z,26.00
2023-03-30T08:44:48.289Z,26.02
2023-03-30T08:45:48.339Z,26.04
2023-03-30T08:46:48.329Z,26.05
2023-03-30T08:47:48.425Z,26.08
2023-03-30T08:48:48.367Z,26.10
2023-03-30T08:49:48.382Z,26.12
2023-03-30T08:50:48.408Z,26.13
2023-03-30T08:51:48.437Z,26.14
2023-03-30T08:52:48.488Z,26.14
2023-03-30T08:53:48.496Z,26.15
2023-03-30T08:54:48.522Z,26.16
2023-03-30T08:55:48.572Z,26.15
2023-03-30T08:56:48.589Z,26.16
2023-03-30T08:57:48.600Z,26.17
2023-03-30T08:58:48.600Z,26.16
2023-03-30T08:59:48.618Z,26.20
2023-03-30T09:00:48.671Z,26.24
2023-03-30T09:01:48.793Z,26.27
2023-03-30T09:02:48.669Z,26.26
2023-03-30T09:03:48.649Z,26.28
2023-03-30T09:04:48.672Z,26.28
2023-03-30T09:05:48.623Z,26.28
2023-03-30T09:06:48.665Z,26.28
2023-03-30T09:07:48.634Z,26.28
2023-03-30T09:08:48.676Z,26.28
2023-03-30T09:09:49.437Z,26.28
2023-03-30T09:10:49.153Z,26.24
2023-03-30T09:11:48.690Z,26.19
2023-03-30T09:12:48.680Z,26.20
2023-03-30T09:13:48.686Z,26.20
2023-03-30T09:14:48.712Z,26.19
2023-03-30T09:15:49.189Z,26.18
2023-03-30T09:16:48.822Z,26.17
2023-03-30T09:17:48.777Z,26.16
2023-03-30T09:18:48.751Z,26.17
2023-03-30T09:19:48.803Z,26.16
2023-03-30T09:20:49.179Z,26.16
2023-03-30T09:21:48.828Z,26.16
2023-03-30T09:22:48.832Z,26.16
2023-03-30T09:23:48.869Z,26.15
2023-03-30T09:24:48.854Z,26.16
2023-03-30T09:25:48.905Z,26.14
2023-03-30T09:26:49.183Z,26.10
2023-03-30T09:27:48.924Z,26.12
2023-03-30T09:28:48.959Z,26.14
2023-03-30T09:29:48.968Z,26.14
2023-03-30T09:30:49.203Z,26.12
2023-03-30T09:31:49.078Z,26.06
2023-03-30T09:32:49.170Z,25.99
2023-03-30T09:33:49.169Z,25.93
2023-03-30T09:34:49.231Z,25.90
2023-03-30T09:35:49.292Z,25.87
2023-03-30T09:36:49.682Z,25.83
2023-03-30T09:37:49.295Z,25.78
2023-03-30T09:38:49.317Z,25.76
2023-03-30T09:39:49.337Z,25.71
2023-03-30T09:40:49.411Z,25.71
2023-03-30T09:41:49.703Z,25.70
2023-03-30T09:42:49.510Z,25.71
2023-03-30T09:43:49.499Z,25.73
2023-03-30T09:44:49.574Z,25.74
2023-03-30T09:45:49.638Z,25.75
2023-03-30T09:46:49.662Z,25.79
2023-03-30T09:47:49.790Z,25.83
2023-03-30T09:48:49.748Z,25.87
2023-03-30T09:49:49.759Z,25.92
2023-03-30T09:50:49.799Z,25.97
2023-03-30T09:51:50.167Z,26.02
2023-03-30T09:52:49.828Z,26.07
2023-03-30T09:53:49.856Z,26.10
2023-03-30T09:54:49.863Z,26.14
2023-03-30T09:55:49.833Z,26.17
2023-03-30T09:56:49.864Z,26.20
2023-03-30T09:57:49.839Z,26.21
2023-03-30T09:58:49.844Z,26.23
2023-03-30T09:59:49.927Z,26.24
2023-03-30T10:00:49.942Z,26.25
2023-03-30T10:01:50.021Z,26.27
2023-03-30T10:02:50.048Z,26.30
2023-03-30T10:03:50.183Z,26.34
2023-03-30T10:04:50.170Z,26.36
2023-03-30T10:05:50.175Z,26.39
2023-03-30T10:06:50.185Z,26.41
2023-03-30T10:07:50.240Z,26.42
2023-03-30T10:08:50.291Z,26.46
2023-03-30T10:09:50.346Z,26.51
2023-03-30T10:10:50.415Z,26.55
2023-03-30T10:11:50.469Z,26.60
2023-03-30T10:12:50.533Z,26.64
2023-03-30T10:13:50.541Z,26.66
2023-03-30T10:14:50.634Z,26.68
2023-03-30T10:15:50.667Z,26.71
2023-03-30T10:16:50.674Z,26.73
2023-03-30T10:17:50.976Z,26.73
2023-03-30T10:18:51.141Z,26.74
2023-03-30T10:19:57.591Z,26.76
2023-03-30T10:20:52.363Z,26.78
2023-03-30T10:21:51.338Z,26.77
2023-03-30T10:22:51.372Z,26.83
2023-03-30T10:23:51.349Z,26.89
2023-03-30T10:24:51.320Z,26.94
2023-03-30T10:25:51.341Z,26.96
2023-03-30T10:26:51.316Z,26.98
2023-03-30T10:27:51.321Z,27.01
2023-03-30T10:28:51.292Z,27.01
2023-03-30T10:29:51.308Z,27.03
2023-03-30T10:30:51.298Z,27.04
2023-03-30T10:31:51.321Z,27.07
2023-03-30T10:32:51.398Z,27.07
2023-03-30T10:33:51.324Z,27.07
2023-03-30T10:34:51.269Z,27.08
2023-03-30T10:35:51.318Z,27.08
2023-03-30T10:36:53.256Z,27.10
2023-03-30T10:37:51.307Z,27.09
2023-03-30T10:38:51.247Z,27.10
2023-03-30T10:39:51.284Z,27.09
2023-03-30T10:40:51.257Z,27.09
2023-03-30T10:41:51.220Z,27.11
2023-03-30T10:42:51.246Z,27.10
2023-03-30T10:43:51.199Z,27.10
2023-03-30T10:44:51.274Z,27.12
2023-03-30T10:45:51.222Z,27.14
2023-03-30T10:46:51.284Z,27.13
2023-03-30T10:47:51.212Z,27.14
2023-03-30T10:48:51.214Z,27.14
2023-03-30T10:49:51.154Z,27.15
2023-03-30T10:50:51.300Z,27.15
2023-03-30T10:51:51.228Z,27.14
2023-03-30T10:52:58.473Z,27.13
2023-03-30T10:53:52.117Z,27.13
2023-03-30T10:54:51.140Z,27.16
2023-03-30T10:55:51.262Z,27.18
2023-03-30T10:56:51.299Z,27.23
2023-03-30T10:57:51.086Z,27.27
2023-03-30T10:58:51.161Z,27.29
2023-03-30T10:59:51.086Z,27.30
2023-03-30T11:00:51.249Z,27.29
2023-03-30T11:01:51.296Z,27.27
2023-03-30T11:02:51.307Z,27.24
2023-03-30T11:03:51.452Z,27.24
2023-03-30T11:04:51.040Z,27.24
2023-03-30T11:05:51.042Z,27.23
2023-03-30T11:06:51.289Z,27.23
2023-03-30T11:07:51.094Z,27.21
2023-03-30T11:08:51.092Z,27.21
2023-03-30T11:09:51.258Z,27.19
2023-03-30T11:10:51.185Z,27.24
2023-03-30T11:11:51.223Z,27.27
2023-03-30T11:12:51.285Z,27.26
2023-03-30T11:13:51.312Z,27.25
2023-03-30T11:14:51.259Z,27.23
2023-03-30T11:15:52.234Z,27.24
2023-03-30T11:16:53.398Z,27.23
2023-03-30T11:17:51.518Z,27.24
2023-03-30T11:18:51.528Z,27.25
2023-03-30T11:19:51.516Z,27.26
2023-03-30T11:20:51.601Z,27.26
2023-03-30T11:21:51.654Z,27.27
2023-03-30T11:22:51.726Z,27.30
2023-03-30T11:23:51.699Z,27.28
2023-03-30T11:24:51.727Z,27.29
2023-03-30T11:25:51.778Z,27.33
2023-03-30T11:26:52.222Z,27.38
2023-03-30T11:27:54.239Z,27.42
2023-03-30T11:28:51.882Z,27.44
2023-03-30T11:29:51.877Z,27.42
2023-03-30T11:30:51.845Z,27.40
2023-03-30T11:31:51.867Z,27.37
2023-03-30T11:32:51.855Z,27.42
2023-03-30T11:33:51.848Z,27.43
2023-03-30T11:34:51.822Z,27.43
2023-03-30T11:35:51.892Z,27.44
2023-03-30T11:36:51.836Z,27.45
2023-03-30T11:37:51.855Z,27.45
2023-03-30T11:38:51.836Z,27.46
2023-03-30T11:39:51.800Z,27.46
2023-03-30T11:40:51.803Z,27.39
2023-03-30T11:41:51.774Z,27.31
2023-03-30T11:42:51.795Z,27.27
2023-03-30T11:43:51.766Z,27.24
2023-03-30T11:44:51.802Z,27.19
2023-03-30T11:45:51.792Z,27.18
2023-03-30T11:46:51.976Z,27.16
2023-03-30T11:47:51.792Z,27.15
2023-03-30T11:48:51.748Z,27.14
2023-03-30T11:49:51.756Z,27.13
2023-03-30T11:50:51.716Z,27.11
2023-03-30T11:51:51.725Z,27.09
2023-03-30T11:52:51.732Z,27.07
2023-03-30T11:53:51.725Z,27.05
2023-03-30T11:55:02.276Z,27.04
2023-03-30T11:55:52.760Z,27.02
2023-03-30T11:56:51.810Z,27.00
2023-03-30T11:57:51.670Z,26.99
2023-03-30T11:58:51.665Z,26.98
2023-03-30T11:59:51.679Z,26.97
2023-03-30T12:00:51.679Z,26.96
2023-03-30T12:01:51.654Z,26.95
2023-03-30T12:02:51.731Z,26.93
2023-03-30T12:03:51.834Z,26.92
2023-03-30T12:04:51.765Z,26.91
2023-03-30T12:05:51.633Z,26.91
2023-03-30T12:06:51.626Z,26.91
2023-03-30T12:07:51.621Z,26.90
2023-03-30T12:08:51.607Z,26.89
2023-03-30T12:09:51.586Z,26.88
2023-03-30T12:10:51.573Z,26.87
2023-03-30T12:11:51.781Z,26.85
2023-03-30T12:12:51.785Z,26.84
2023-03-30T12:13:52.424Z,26.83
2023-03-30T12:14:51.856Z,26.81
2023-03-30T12:15:51.899Z,26.81
2023-03-30T12:16:51.935Z,26.80
2023-03-30T12:17:52.028Z,26.79
2023-03-30T12:18:51.935Z,26.78
2023-03-30T12:19:56.626Z,26.78
2023-03-30T12:20:52.975Z,26.76
2023-03-30T12:21:51.993Z,26.76
2023-03-30T12:22:52.013Z,26.75
2023-03-30T12:23:51.952Z,26.75
2023-03-30T12:24:51.939Z,26.74
2023-03-30T12:25:51.971Z,26.74
2023-03-30T12:27:52.930Z,26.71
2023-03-30T12:29:20.751Z,26.67
2023-03-30T12:30:51.913Z,26.58
2023-03-30T12:31:51.952Z,26.55
2023-03-30T12:32:51.925Z,26.52
2023-03-30T12:33:51.884Z,26.50
2023-03-30T12:34:51.915Z,26.49
2023-03-30T12:35:51.956Z,26.48
2023-03-30T12:36:51.864Z,26.49
2023-03-30T12:37:51.840Z,26.49
2023-03-30T12:38:51.848Z,26.50
2023-03-30T12:39:51.869Z,26.49
2023-03-30T12:40:51.813Z,26.49
2023-03-30T12:41:51.831Z,26.50
2023-03-30T12:42:51.856Z,26.51
2023-03-30T12:43:51.930Z,26.52
2023-03-30T12:44:51.978Z,26.53
2023-03-30T12:45:52.020Z,26.53
2023-03-30T12:46:52.056Z,26.53
2023-03-30T12:47:52.151Z,26.53
2023-03-30T12:48:52.164Z,26.52
2023-03-30T12:49:52.219Z,26.52
2023-03-30T12:50:52.258Z,26.51
2023-03-30T12:51:52.344Z,26.52
2023-03-30T12:52:52.370Z,26.51
2023-03-30T12:53:52.394Z,26.51
2023-03-30T12:54:52.469Z,26.50